createdAt,value
2018-08-30T00:03:20.702Z,12.77
2018-08-30T00:08:15.226Z,13.13
2018-08-30T00:13:09.832Z,14.93
2018-08-30T00:18:04.318Z,13.70
2018-08-30T00:22:58.886Z,13.47
2018-08-30T00:27:53.576Z,12.60
2018-08-30T00:32:48.147Z,10.43
2018-08-30T00:37:42.614Z,11.57
2018-08-30T00:42:37.138Z,12.00
2018-08-30T00:47:31.591Z,13.73
2018-08-30T00:52:26.063Z,13.93
2018-08-30T00:57:20.718Z,15.90
2018-08-30T01:02:15.653Z,16.60
2018-08-30T01:07:11.293Z,16.93
2018-08-30T01:12:06.120Z,18.97
2018-08-30T01:17:01.010Z,18.37
2018-08-30T01:21:55.703Z,20.53
2018-08-30T01:26:50.186Z,21.30
2018-08-30T01:31:45.471Z,23.20
2018-08-30T01:36:40.872Z,22.50
2018-08-30T01:41:35.685Z,25.13
2018-08-30T01:46:30.980Z,23.47
2018-08-30T01:51:25.580Z,23.73
2018-08-30T01:56:20.241Z,24.70
2018-08-30T02:01:15.245Z,23.93
2018-08-30T02:06:10.083Z,25.80
2018-08-30T02:11:04.576Z,24.70
2018-08-30T02:15:59.206Z,25.77
2018-08-30T02:20:53.930Z,26.93
2018-08-30T02:25:48.604Z,24.87
2018-08-30T02:30:43.800Z,25.03
2018-08-30T02:35:38.544Z,25.33
2018-08-30T02:40:32.992Z,25.37
2018-08-30T02:45:27.637Z,25.57
2018-08-30T02:50:22.180Z,25.53
2018-08-30T02:55:16.676Z,26.20
2018-08-30T03:00:11.745Z,24.40
2018-08-30T03:05:06.553Z,25.97
2018-08-30T03:10:01.379Z,26.13
2018-08-30T03:15:12.279Z,24.87
2018-08-30T03:20:09.204Z,23.87
2018-08-30T03:25:04.936Z,26.93
2018-08-30T03:29:59.838Z,28.53
2018-08-30T03:34:54.382Z,27.83
2018-08-30T03:39:49.438Z,28.57
2018-08-30T03:44:43.974Z,27.77
2018-08-30T03:49:38.738Z,29.17
2018-08-30T03:54:33.244Z,27.97
2018-08-30T03:59:28.004Z,29.93
2018-08-30T04:04:22.488Z,28.97
2018-08-30T04:09:17.145Z,26.50
2018-08-30T04:14:11.610Z,30.07
2018-08-30T04:19:07.486Z,28.37
2018-08-30T04:24:02.739Z,29.43
2018-08-30T04:28:57.334Z,28.10
2018-08-30T04:33:52.182Z,30.13
2018-08-30T04:38:46.948Z,31.40
2018-08-30T04:43:41.537Z,31.20
2018-08-30T04:48:36.280Z,30.83
2018-08-30T04:53:30.763Z,32.47
2018-08-30T04:58:25.292Z,31.93
2018-08-30T05:03:19.762Z,30.30
2018-08-30T05:08:14.242Z,31.10
2018-08-30T05:13:09.033Z,30.17
2018-08-30T05:18:03.539Z,29.13
2018-08-30T05:22:58.339Z,30.17
2018-08-30T05:27:53.454Z,29.70
2018-08-30T05:32:48.505Z,29.87
2018-08-30T05:37:42.960Z,28.83
2018-08-30T05:42:37.631Z,28.87
2018-08-30T05:47:32.180Z,28.07
2018-08-30T05:52:27.018Z,26.80
2018-08-30T05:57:21.605Z,27.17
2018-08-30T06:02:16.081Z,26.87
2018-08-30T06:07:10.766Z,25.47
2018-08-30T06:12:05.237Z,25.53
2018-08-30T06:17:00.317Z,25.17
2018-08-30T06:21:54.881Z,27.37
2018-08-30T06:26:49.827Z,25.93
2018-08-30T06:31:44.384Z,24.37
2018-08-30T06:36:39.082Z,20.40
2018-08-30T06:41:33.624Z,23.13
2018-08-30T06:46:28.476Z,23.00
2018-08-30T06:51:23.067Z,21.10
2018-08-30T06:56:18.289Z,20.57
2018-08-30T07:01:13.470Z,20.17
2018-08-30T07:06:08.627Z,18.33
2018-08-30T07:11:03.082Z,15.80
2018-08-30T07:15:57.617Z,16.30
2018-08-30T07:20:52.755Z,14.30
2018-08-30T07:25:49.019Z,14.00
2018-08-30T07:30:43.982Z,13.47
2018-08-30T07:35:38.552Z,13.57
2018-08-30T07:40:33.037Z,11.80
2018-08-30T07:45:27.650Z,12.13
2018-08-30T07:50:22.180Z,11.23
2018-08-30T07:55:16.859Z,11.20
2018-08-30T08:00:11.842Z,10.40
2018-08-30T08:05:06.610Z,10.67
2018-08-30T08:10:01.380Z,8.30
2018-08-30T08:14:55.848Z,7.20
2018-08-30T08:19:50.534Z,6.20
2018-08-30T08:24:45.302Z,5.70
2018-08-30T08:29:40.278Z,4.33
2018-08-30T08:34:34.979Z,4.53
2018-08-30T08:39:30.057Z,4.53
2018-08-30T08:44:25.472Z,4.53
2018-08-30T08:49:20.285Z,4.10
2018-08-30T08:54:15.075Z,3.60
2018-08-30T08:59:10.259Z,3.87
2018-08-30T09:04:05.333Z,3.27
2018-08-30T09:09:00.122Z,3.50
2018-08-30T09:13:55.128Z,3.57
2018-08-30T09:18:49.845Z,3.20
2018-08-30T09:23:45.114Z,2.70
2018-08-30T09:28:39.897Z,3.20
2018-08-30T09:33:34.673Z,3.30
2018-08-30T09:38:29.574Z,2.73
2018-08-30T09:43:24.300Z,3.10
2018-08-30T09:48:19.072Z,4.63
2018-08-30T09:53:13.833Z,3.50
2018-08-30T09:58:08.988Z,3.27
2018-08-30T10:03:03.697Z,2.70
2018-08-30T10:07:58.471Z,2.73
2018-08-30T10:12:53.614Z,2.87
2018-08-30T10:17:48.346Z,2.80
2018-08-30T10:22:43.082Z,2.63
2018-08-30T10:27:38.293Z,3.23
2018-08-30T10:32:33.487Z,2.80
2018-08-30T10:37:28.573Z,2.60
2018-08-30T10:42:23.128Z,2.80
2018-08-30T10:47:17.631Z,2.53
2018-08-30T10:52:12.473Z,2.93
2018-08-30T10:57:07.198Z,2.50
2018-08-30T11:02:01.688Z,2.50
2018-08-30T11:06:56.446Z,2.70
2018-08-30T11:11:51.040Z,2.53
2018-08-30T11:16:45.655Z,2.37
2018-08-30T11:21:40.226Z,2.20
2018-08-30T11:26:34.823Z,2.40
2018-08-30T11:31:29.302Z,2.57
2018-08-30T11:36:23.752Z,2.13
2018-08-30T11:41:18.413Z,2.53
2018-08-30T11:46:13.032Z,3.20
2018-08-30T11:51:08.735Z,2.50
2018-08-30T11:56:03.703Z,2.10
2018-08-30T12:00:58.650Z,1.90
2018-08-30T12:05:53.817Z,1.93
2018-08-30T12:10:48.871Z,2.07
2018-08-30T12:15:43.653Z,1.90
2018-08-30T12:20:38.315Z,2.03
2018-08-30T12:25:32.997Z,1.87
2018-08-30T12:30:27.706Z,2.00
2018-08-30T12:35:22.634Z,2.20
2018-08-30T12:40:18.006Z,2.47
2018-08-30T12:45:12.523Z,2.47
2018-08-30T12:50:07.560Z,1.77
2018-08-30T12:55:02.611Z,2.30
2018-08-30T12:59:57.186Z,1.70
2018-08-30T13:04:51.953Z,1.87
2018-08-30T13:09:47.021Z,1.80
2018-08-30T13:14:41.966Z,1.70
2018-08-30T13:19:36.754Z,2.07
2018-08-30T13:24:31.358Z,1.90
2018-08-30T13:29:26.216Z,2.07
2018-08-30T13:34:21.081Z,1.63
2018-08-30T13:39:16.344Z,1.60
2018-08-30T13:44:12.044Z,1.90
2018-08-30T13:49:07.237Z,1.87
2018-08-30T13:54:01.860Z,1.60
2018-08-30T13:58:56.496Z,1.87
2018-08-30T14:03:51.071Z,2.23
2018-08-30T14:08:46.154Z,1.70
2018-08-30T14:13:41.323Z,1.73
2018-08-30T14:18:35.718Z,2.47
2018-08-30T14:23:30.569Z,1.77
2018-08-30T14:28:25.071Z,1.90
2018-08-30T14:33:20.018Z,1.80
2018-08-30T14:38:14.900Z,1.80
2018-08-30T14:43:09.870Z,1.63
2018-08-30T14:48:04.414Z,1.70
2018-08-30T14:52:59.225Z,1.70
2018-08-30T14:57:53.838Z,2.23
2018-08-30T15:02:48.635Z,2.07
2018-08-30T15:07:43.299Z,2.53
2018-08-30T15:12:38.209Z,2.20
2018-08-30T15:17:33.574Z,2.00
2018-08-30T15:22:29.912Z,1.70
2018-08-30T15:27:24.418Z,1.80
2018-08-30T15:32:19.113Z,1.90
2018-08-30T15:37:13.564Z,2.03
2018-08-30T15:42:08.388Z,1.70
2018-08-30T15:47:03.352Z,1.80
2018-08-30T15:51:57.908Z,2.00
2018-08-30T15:56:52.366Z,2.03
2018-08-30T16:01:46.936Z,1.97
2018-08-30T16:06:41.641Z,1.90
2018-08-30T16:11:36.640Z,2.03
2018-08-30T16:16:31.336Z,1.70
2018-08-30T16:21:25.960Z,1.80
2018-08-30T16:26:20.642Z,2.53
2018-08-30T16:31:15.263Z,2.10
2018-08-30T16:36:10.073Z,1.63
2018-08-30T16:41:06.601Z,1.63
2018-08-30T16:46:02.505Z,1.67
2018-08-30T16:50:57.048Z,1.70
2018-08-30T16:55:51.760Z,2.07
2018-08-30T17:00:46.409Z,2.10
2018-08-30T17:05:41.649Z,1.50
2018-08-30T17:10:36.865Z,1.90
2018-08-30T17:15:31.618Z,1.70
2018-08-30T17:20:47.379Z,1.80
2018-08-30T17:25:42.926Z,1.80
2018-08-30T17:30:37.651Z,1.90
2018-08-30T17:35:32.271Z,2.20
2018-08-30T17:40:26.838Z,2.90
2018-08-30T17:45:21.681Z,2.10
2018-08-30T17:50:18.459Z,2.27
2018-08-30T17:55:13.796Z,2.10
2018-08-30T18:00:11.895Z,2.10
2018-08-30T18:05:07.126Z,2.30
2018-08-30T18:10:02.976Z,1.90
2018-08-30T18:14:57.426Z,2.27
2018-08-30T18:29:19.176Z,2.60
2018-08-30T18:34:16.217Z,2.70
2018-08-30T18:39:13.631Z,2.10
2018-08-30T18:44:10.106Z,2.60
2018-08-30T18:49:07.569Z,2.63
2018-08-30T18:54:04.261Z,9.67
2018-08-30T18:59:00.914Z,2.87
2018-08-30T19:03:58.147Z,2.63
2018-08-30T19:08:52.674Z,3.27
2018-08-30T19:13:47.184Z,3.30
2018-08-30T19:18:46.877Z,2.87
2018-08-30T19:23:41.330Z,2.80
2018-08-30T19:28:35.889Z,3.00
2018-08-30T19:33:30.681Z,2.30
2018-08-30T19:38:25.276Z,2.50
2018-08-30T19:43:19.938Z,2.33
2018-08-30T19:48:14.431Z,2.60
2018-08-30T19:53:09.599Z,2.40
2018-08-30T19:58:04.053Z,2.40
2018-08-30T20:02:58.727Z,2.13
2018-08-30T20:07:53.176Z,2.23
2018-08-30T20:12:48.099Z,2.30
2018-08-30T20:17:42.795Z,2.47
2018-08-30T20:22:37.284Z,2.20
2018-08-30T20:27:31.931Z,2.13
2018-08-30T20:32:26.420Z,2.50
2018-08-30T20:37:21.630Z,2.53
2018-08-30T20:42:16.100Z,2.50
2018-08-30T20:47:10.594Z,2.37
2018-08-30T20:52:05.227Z,2.10
2018-08-30T20:56:59.782Z,2.33
2018-08-30T21:01:54.312Z,2.30
2018-08-30T21:06:48.918Z,2.40
2018-08-30T21:11:43.581Z,2.47
2018-08-30T21:16:38.195Z,2.37
2018-08-30T21:21:33.215Z,2.50
2018-08-30T21:26:27.678Z,2.93
2018-08-30T21:31:23.589Z,2.50
2018-08-30T21:36:18.519Z,3.27
2018-08-30T21:41:13.239Z,3.47
2018-08-30T21:46:08.571Z,3.33
2018-08-30T21:51:03.748Z,3.20
2018-08-30T21:55:59.132Z,3.93
2018-08-30T22:00:54.352Z,3.97
2018-08-30T22:05:51.634Z,3.73
2018-08-30T22:10:47.604Z,3.40
2018-08-30T22:15:42.336Z,3.50
2018-08-30T22:20:37.117Z,4.00
2018-08-30T22:25:33.955Z,3.27
2018-08-30T22:30:31.222Z,3.93
2018-08-30T22:35:26.408Z,4.63
2018-08-30T22:40:21.046Z,3.87
2018-08-30T22:45:15.846Z,4.23
2018-08-30T22:50:10.963Z,4.20
2018-08-30T22:55:05.486Z,3.83
2018-08-30T23:00:00.124Z,3.43
2018-08-30T23:04:55.026Z,3.27
2018-08-30T23:09:49.881Z,3.63
2018-08-30T23:14:45.064Z,4.40
2018-08-30T23:19:39.825Z,4.10
2018-08-30T23:24:34.498Z,4.33
2018-08-30T23:29:29.342Z,4.33
2018-08-30T23:34:24.248Z,4.30
2018-08-30T23:39:19.194Z,3.90
2018-08-30T23:44:14.871Z,3.73
2018-08-30T23:49:10.237Z,3.57
2018-08-30T23:54:04.886Z,3.50
2018-08-30T23:59:16.590Z,3.80
